Lafayette, Minnesota
Current Conditions -  °F | °C
As of 3:14 AM on Wednesday 22 Oct 2014 (Local Time) from KULM Reporting Station
Clear Clear  
Wind Chill: 39°   Ceiling: Unl
Heat Index: 45°   Visibility: 10mi
Dew Point: 37°   Wind: 12mph
Humidity: 76%   Direction: 160°SSE
Pressure: 30.13"   Gusts: NA
Location:  44.45°N, 94.4°W
Report Text: KULM 220814Z AUTO 16010KT 10SM CLR 07/03 A3013 RMK AO2
Loading
Personal Weather Stations






























Interactive Weather Map
Tropical Storm Tracking
New forecast layout! Learn more

10-Day Weather Forecast

Advertisements
Track Severe Weather on mobile